Time;durP1;ratioP1;P1;durP2;ratioP2;P2;SDS_P1;SDS_P2;PMS_P1;PMS_P2;Temp;Humidity;BMP_temperature;BMP_pressure;BME280_temperature;BME280_humidity;BME280_pressure;Samples;Min_cycle;Max_cycle;Signal;HPM_P1;HPM_P2
2021/12/18 00:00:34;;;;;;;15.05;11.70;;;7.30;99.90;;;;;;5032255;28;20257;-81
2021/12/18 00:03:00;;;;;;;18.05;13.30;;;7.30;99.90;;;;;;5032807;28;20255;-82
2021/12/18 00:05:26;;;;;;;17.25;13.32;;;7.30;99.90;;;;;;5032430;28;20216;-81
2021/12/18 00:07:51;;;;;;;14.40;12.43;;;7.30;99.90;;;;;;5015493;28;20208;-82
2021/12/18 00:10:23;;;;;;;23.73;18.20;;;7.30;99.90;;;;;;5015085;28;20228;-81
2021/12/18 00:12:49;;;;;;;25.58;19.35;;;7.30;99.90;;;;;;5032940;28;20201;-81
2021/12/18 00:15:18;;;;;;;24.05;17.85;;;7.30;99.90;;;;;;5014875;28;20205;-81
2021/12/18 00:17:43;;;;;;;19.88;14.30;;;7.30;99.90;;;;;;5033194;28;20198;-81
2021/12/18 00:20:14;;;;;;;22.17;16.30;;;7.30;99.90;;;;;;5038299;28;20166;-82
2021/12/18 00:22:41;;;;;;;19.75;15.38;;;7.30;99.90;;;;;;5034512;28;20252;-81
2021/12/18 00:25:07;;;;;;;22.35;14.38;;;7.20;99.90;;;;;;5044280;28;20671;-81
2021/12/18 00:27:33;;;;;;;21.85;15.20;;;7.30;99.90;;;;;;5052360;28;20177;-81
2021/12/18 00:29:58;;;;;;;22.47;15.60;;;7.30;99.90;;;;;;5052242;28;20164;-81
2021/12/18 00:32:24;;;;;;;18.30;14.03;;;7.20;99.90;;;;;;5018463;28;20950;-81
2021/12/18 00:34:50;;;;;;;17.50;14.00;;;7.20;99.90;;;;;;5052681;28;20176;-81
2021/12/18 00:37:15;;;;;;;21.10;15.70;;;7.20;99.90;;;;;;5033686;28;20676;-81
2021/12/18 00:39:51;;;;;;;18.10;15.00;;;7.20;99.90;;;;;;5052014;28;20282;-81
2021/12/18 00:45:02;;;;;;;21.85;15.40;;;7.20;99.90;;;;;;5052631;28;20255;-81
2021/12/18 00:47:28;;;;;;;21.05;15.15;;;7.10;99.90;;;;;;5052513;28;20542;-81
2021/12/18 00:49:53;;;;;;;22.43;16.57;;;7.10;99.90;;;;;;5052413;28;20165;-81
2021/12/18 00:52:19;;;;;;;20.00;15.53;;;7.10;99.90;;;;;;5054142;28;20165;-81
2021/12/18 00:54:48;;;;;;;16.52;13.57;;;7.10;99.90;;;;;;5053026;28;20169;-81
2021/12/18 00:57:13;;;;;;;21.20;15.70;;;7.10;99.90;;;;;;5057132;28;20175;-81
2021/12/18 00:59:40;;;;;;;24.80;18.45;;;7.10;99.90;;;;;;5052831;28;20173;-82
2021/12/18 01:02:06;;;;;;;27.37;20.60;;;7.10;99.90;;;;;;5053040;28;20165;-82
2021/12/18 01:04:31;;;;;;;23.43;17.23;;;7.10;99.90;;;;;;5052447;28;20188;-82
2021/12/18 01:06:57;;;;;;;23.50;18.10;;;7.00;99.90;;;;;;5052513;28;20564;-82
2021/12/18 01:09:37;;;;;;;29.70;22.17;;;7.10;99.90;;;;;;5033926;28;20637;-82
2021/12/18 01:12:05;;;;;;;26.30;20.17;;;7.10;99.90;;;;;;5034362;28;20256;-82
2021/12/18 01:14:44;;;;;;;28.70;19.67;;;7.10;99.90;;;;;;5034318;28;20251;-82
2021/12/18 01:25:06;;;;;;;20.25;16.25;;;7.30;99.90;;;;;;5052043;28;20181;-81
2021/12/18 01:27:32;;;;;;;26.55;19.58;;;7.40;99.90;;;;;;5051490;28;20619;-82
2021/12/18 01:29:58;;;;;;;25.00;17.80;;;7.40;99.90;;;;;;5051952;28;20164;-84
2021/12/18 01:32:25;;;;;;;22.47;17.53;;;7.50;99.90;;;;;;5052719;28;20751;-82
2021/12/18 01:34:51;;;;;;;22.38;17.20;;;7.60;99.90;;;;;;5054461;28;20179;-81
2021/12/18 01:37:17;;;;;;;17.53;15.30;;;7.70;99.90;;;;;;5034072;28;20645;-82
2021/12/18 01:39:43;;;;;;;18.13;14.10;;;7.80;99.90;;;;;;5051360;28;20180;-82
2021/12/18 01:43:20;;;;;;;19.80;15.52;;;7.80;99.90;;;;;;5051357;28;20563;-82
2021/12/18 01:45:19;;;;;;;19.38;14.40;;;7.90;99.90;;;;;;5030964;28;20242;-81
2021/12/18 01:53:16;;;;;;;17.83;13.68;;;8.20;99.90;;;;;;5037281;28;20192;-82
2021/12/18 01:55:44;;;;;;;16.45;14.57;;;8.20;99.90;;;;;;5055395;28;20205;-80
2021/12/18 01:58:10;;;;;;;17.25;13.40;;;8.30;99.90;;;;;;5055446;28;20177;-82
2021/12/18 02:00:40;;;;;;;16.15;13.88;;;8.40;99.90;;;;;;5055027;28;20169;-81
2021/12/18 02:03:07;;;;;;;16.65;12.98;;;8.40;99.90;;;;;;5037335;28;20250;-81
2021/12/18 02:05:34;;;;;;;14.25;12.85;;;8.50;99.90;;;;;;5037445;28;20173;-81
2021/12/18 02:08:00;;;;;;;15.70;13.65;;;8.60;99.90;;;;;;5055723;28;20173;-82
2021/12/18 02:10:30;;;;;;;14.90;13.35;;;8.70;99.90;;;;;;5042637;28;20633;-82
2021/12/18 02:13:07;;;;;;;20.40;15.90;;;8.70;99.90;;;;;;5037668;28;20192;-82
2021/12/18 02:21:10;;;;;;;14.07;12.60;;;8.90;99.90;;;;;;5054515;28;20172;-81
2021/12/18 02:23:39;;;;;;;17.38;14.20;;;9.00;99.90;;;;;;5037056;28;20200;-82
2021/12/18 02:26:06;;;;;;;18.00;15.85;;;9.10;99.90;;;;;;5054840;28;20292;-82
2021/12/18 02:28:31;;;;;;;19.67;16.27;;;9.10;99.90;;;;;;5037716;28;20508;-82
2021/12/18 02:30:58;;;;;;;16.97;15.17;;;9.20;99.90;;;;;;5054549;28;20234;-81
2021/12/18 02:33:26;;;;;;;16.52;13.40;;;9.20;99.90;;;;;;5054640;28;20972;-81
2021/12/18 02:35:54;;;;;;;18.02;14.02;;;9.20;99.90;;;;;;5037282;28;20184;-81
2021/12/18 02:38:28;;;;;;;16.95;15.13;;;9.30;99.90;;;;;;5055128;28;20298;-81
2021/12/18 02:41:04;;;;;;;16.52;14.15;;;9.30;99.90;;;;;;5054256;28;20207;-80
2021/12/18 02:43:33;;;;;;;14.45;12.38;;;9.30;99.90;;;;;;5054311;28;20590;-81
2021/12/18 02:46:00;;;;;;;15.50;13.48;;;9.30;99.90;;;;;;5037806;28;20169;-80
2021/12/18 02:48:28;;;;;;;16.35;12.52;;;9.30;99.90;;;;;;5040812;28;20177;-81
2021/12/18 02:50:56;;;;;;;16.52;12.23;;;9.30;99.90;;;;;;5036341;28;20628;-81
2021/12/18 02:53:22;;;;;;;12.95;11.57;;;9.30;99.90;;;;;;5036029;28;20288;-81
2021/12/18 02:56:00;;;;;;;14.57;11.52;;;9.20;99.90;;;;;;5054453;28;20200;-81
2021/12/18 02:58:27;;;;;;;14.95;12.18;;;9.20;99.90;;;;;;5036212;28;20184;-80
2021/12/18 03:00:55;;;;;;;16.70;11.57;;;9.20;99.90;;;;;;5052882;28;20629;-80
2021/12/18 03:03:24;;;;;;;12.93;10.73;;;9.20;99.90;;;;;;5054248;28;20207;-81
2021/12/18 03:06:19;;;;;;;16.77;11.95;;;9.20;99.90;;;;;;5053903;28;20214;-80
2021/12/18 03:20:30;;;;;;;13.07;11.00;;;9.30;99.90;;;;;;5035121;28;20277;-82
2021/12/18 03:25:04;;;;;;;12.53;10.97;;;9.30;99.90;;;;;;5047832;28;20604;-81
2021/12/18 03:27:30;;;;;;;13.27;11.00;;;9.30;99.90;;;;;;5044967;28;20231;-81
2021/12/18 03:29:57;;;;;;;15.10;12.75;;;9.20;99.90;;;;;;5064877;28;20177;-81
2021/12/18 03:32:24;;;;;;;15.80;11.68;;;9.20;99.90;;;;;;5021415;28;20684;-81
2021/12/18 03:34:51;;;;;;;18.90;14.48;;;9.10;99.90;;;;;;5018678;28;20174;-81
2021/12/18 03:37:18;;;;;;;16.20;13.48;;;9.10;99.90;;;;;;5019390;28;20223;-81
2021/12/18 03:39:44;;;;;;;20.55;15.52;;;9.10;99.90;;;;;;5038753;28;20240;-81
2021/12/18 03:42:10;;;;;;;21.00;14.38;;;9.10;99.90;;;;;;5037489;28;20168;-81
2021/12/18 03:44:36;;;;;;;21.20;15.20;;;9.00;99.90;;;;;;5037171;28;20280;-81
2021/12/18 03:47:03;;;;;;;20.33;14.05;;;9.00;99.90;;;;;;5018390;28;20174;-81
2021/12/18 03:49:29;;;;;;;18.92;12.30;;;9.00;99.90;;;;;;5035342;28;20638;-81
2021/12/18 03:51:55;;;;;;;22.80;14.80;;;9.00;99.90;;;;;;5036604;28;20170;-82
2021/12/18 03:54:20;;;;;;;17.47;12.90;;;9.00;99.90;;;;;;5035453;28;20711;-82
2021/12/18 03:56:46;;;;;;;19.60;15.30;;;9.00;99.90;;;;;;5034526;28;20726;-81
2021/12/18 03:59:12;;;;;;;20.63;15.17;;;8.90;99.90;;;;;;5016581;28;20166;-81
2021/12/18 04:01:38;;;;;;;19.30;15.00;;;8.90;99.90;;;;;;5040256;28;20173;-80
2021/12/18 04:04:04;;;;;;;18.30;15.00;;;8.90;99.90;;;;;;5016081;28;20186;-81
2021/12/18 04:06:31;;;;;;;23.73;15.10;;;8.80;99.90;;;;;;5033016;28;20572;-81
2021/12/18 04:08:57;;;;;;;20.70;15.40;;;8.80;99.90;;;;;;5016767;28;20165;-81
2021/12/18 04:11:23;;;;;;;23.90;16.60;;;8.70;99.90;;;;;;5014768;28;20513;-81
2021/12/18 04:13:49;;;;;;;21.73;15.90;;;8.70;99.90;;;;;;5015845;28;20209;-81
2021/12/18 04:16:15;;;;;;;18.70;14.63;;;8.60;99.90;;;;;;5033403;28;20960;-80
2021/12/18 04:18:41;;;;;;;22.33;15.83;;;8.60;99.90;;;;;;5032741;28;20197;-80
2021/12/18 04:21:07;;;;;;;20.20;14.27;;;8.50;99.90;;;;;;5014402;28;20568;-81
2021/12/18 04:23:33;;;;;;;22.15;14.80;;;8.50;99.90;;;;;;5033155;28;20596;-82
2021/12/18 04:25:59;;;;;;;15.70;12.60;;;8.50;99.90;;;;;;5034284;28;20169;-82
2021/12/18 04:28:24;;;;;;;19.00;12.20;;;8.50;99.90;;;;;;5016731;28;20579;-83
2021/12/18 04:30:50;;;;;;;15.30;11.73;;;8.60;99.90;;;;;;5020394;28;20177;-83
2021/12/18 04:33:16;;;;;;;16.37;11.83;;;8.60;99.90;;;;;;5016244;28;20212;-83
2021/12/18 04:35:43;;;;;;;17.80;12.85;;;8.60;99.90;;;;;;5017161;28;21159;-83
2021/12/18 04:38:09;;;;;;;16.08;12.05;;;8.70;99.90;;;;;;5020960;28;20170;-82
2021/12/18 04:40:35;;;;;;;15.63;12.57;;;8.60;99.90;;;;;;5014802;28;20181;-81
2021/12/18 04:43:02;;;;;;;15.40;12.50;;;8.50;99.90;;;;;;5032672;28;20615;-82
2021/12/18 04:45:28;;;;;;;15.63;11.35;;;8.50;99.90;;;;;;5032765;28;20172;-82
2021/12/18 04:47:55;;;;;;;17.50;12.27;;;8.40;99.90;;;;;;5032556;28;20174;-81
2021/12/18 04:50:22;;;;;;;16.73;12.75;;;8.40;99.90;;;;;;5031531;28;20919;-81
2021/12/18 04:52:48;;;;;;;14.82;10.93;;;8.30;99.90;;;;;;5032117;28;20212;-80
2021/12/18 04:55:14;;;;;;;16.35;11.93;;;8.30;99.90;;;;;;5014387;28;20224;-81
2021/12/18 04:57:40;;;;;;;14.48;11.43;;;8.40;99.90;;;;;;5032648;28;20165;-82
2021/12/18 05:00:08;;;;;;;16.07;12.17;;;8.40;99.90;;;;;;5014676;28;20169;-81
2021/12/18 05:02:39;;;;;;;14.73;11.25;;;8.40;99.90;;;;;;5014369;28;20227;-81
2021/12/18 05:05:05;;;;;;;14.70;11.93;;;8.40;99.90;;;;;;5014459;28;20236;-80
2021/12/18 05:07:32;;;;;;;15.88;12.02;;;8.40;99.90;;;;;;5032246;28;20176;-81
2021/12/18 05:09:57;;;;;;;15.07;11.88;;;8.30;99.90;;;;;;5031403;28;20579;-80
2021/12/18 05:12:23;;;;;;;15.80;12.43;;;8.30;99.90;;;;;;5014758;28;20189;-80
2021/12/18 05:14:49;;;;;;;16.05;11.63;;;8.20;99.90;;;;;;5037399;28;20858;-80
2021/12/18 05:17:15;;;;;;;14.23;10.77;;;8.20;99.90;;;;;;5031872;28;20182;-80
2021/12/18 05:19:41;;;;;;;15.10;10.20;;;8.30;99.90;;;;;;5031046;28;20455;-81
2021/12/18 05:22:07;;;;;;;17.20;11.63;;;8.30;99.90;;;;;;5041026;28;20234;-82
2021/12/18 05:24:33;;;;;;;12.77;10.77;;;8.40;99.90;;;;;;5031818;28;20275;-81
2021/12/18 05:26:59;;;;;;;13.47;10.40;;;8.50;99.90;;;;;;5034391;28;20619;-81
2021/12/18 05:29:25;;;;;;;17.43;12.20;;;8.50;99.90;;;;;;5051803;28;20255;-82
2021/12/18 05:31:51;;;;;;;12.85;10.43;;;8.60;99.90;;;;;;5051961;28;21030;-81
2021/12/18 05:34:25;;;;;;;15.63;11.63;;;8.60;99.90;;;;;;5033691;28;20283;-81
2021/12/18 05:39:27;;;;;;;17.23;10.70;;;8.60;99.90;;;;;;5033894;28;20180;-82
2021/12/18 05:41:54;;;;;;;14.75;11.55;;;8.70;99.90;;;;;;5052739;28;20522;-82
2021/12/18 05:44:22;;;;;;;15.10;10.90;;;8.60;99.90;;;;;;5052508;28;20271;-82
2021/12/18 05:46:48;;;;;;;16.60;11.63;;;8.60;99.90;;;;;;5035640;28;20180;-81
2021/12/18 05:49:14;;;;;;;17.30;12.70;;;8.60;99.90;;;;;;5055326;28;20176;-81
2021/12/18 05:51:40;;;;;;;16.30;11.95;;;8.70;99.90;;;;;;5057759;28;20643;-80
2021/12/18 05:54:06;;;;;;;14.43;10.67;;;8.70;99.90;;;;;;5033612;28;20296;-80
2021/12/18 05:56:33;;;;;;;18.92;11.50;;;8.80;99.90;;;;;;5051560;28;20211;-80
2021/12/18 05:58:59;;;;;;;14.05;10.80;;;8.80;99.90;;;;;;5051774;28;20187;-80
2021/12/18 06:01:26;;;;;;;22.48;14.40;;;8.80;99.90;;;;;;5033407;28;20684;-79
2021/12/18 06:03:52;;;;;;;19.23;13.63;;;8.80;99.90;;;;;;5049678;28;20566;-79
2021/12/18 06:06:18;;;;;;;21.70;14.43;;;8.70;99.90;;;;;;5051389;28;20173;-80
2021/12/18 06:08:43;;;;;;;18.03;10.87;;;8.60;99.90;;;;;;5033767;28;20239;-80
2021/12/18 06:11:14;;;;;;;22.00;14.97;;;8.50;99.90;;;;;;5050890;28;21403;-81
2021/12/18 06:13:44;;;;;;;21.80;14.90;;;8.40;99.90;;;;;;5033200;28;20595;-81
2021/12/18 06:16:11;;;;;;;22.33;13.43;;;8.40;99.90;;;;;;5050979;28;20645;-81
2021/12/18 06:18:40;;;;;;;18.95;12.40;;;8.40;99.90;;;;;;5051459;28;20169;-81
2021/12/18 06:21:09;;;;;;;22.55;13.73;;;8.40;99.90;;;;;;5032825;28;20180;-81
2021/12/18 06:23:35;;;;;;;21.98;14.50;;;8.40;99.90;;;;;;5051071;28;20194;-80
2021/12/18 06:26:01;;;;;;;19.13;12.98;;;8.40;99.90;;;;;;5033200;28;20665;-80
2021/12/18 06:28:26;;;;;;;25.73;12.20;;;8.40;99.90;;;;;;5056412;28;20256;-80
2021/12/18 06:30:52;;;;;;;20.53;13.33;;;8.40;99.90;;;;;;5032466;28;20600;-80
2021/12/18 06:33:18;;;;;;;21.08;13.43;;;8.40;99.90;;;;;;5032756;28;20227;-80
2021/12/18 06:35:45;;;;;;;15.50;11.10;;;8.40;99.90;;;;;;5051742;23;20269;-80
2021/12/18 06:38:11;;;;;;;20.52;12.52;;;8.50;99.90;;;;;;5001407;28;20581;-80
2021/12/18 06:40:37;;;;;;;18.53;12.07;;;8.40;99.90;;;;;;4999442;28;20191;-80
2021/12/18 06:43:02;;;;;;;22.60;14.37;;;8.40;99.90;;;;;;5014328;28;20179;-80
2021/12/18 06:45:28;;;;;;;16.40;11.83;;;8.40;99.90;;;;;;4995461;28;20199;-80
2021/12/18 06:47:54;;;;;;;22.40;12.80;;;8.30;99.90;;;;;;4981139;28;20234;-80
2021/12/18 06:50:21;;;;;;;22.05;14.55;;;8.30;99.90;;;;;;5002000;28;20578;-80
2021/12/18 06:52:47;;;;;;;23.15;13.45;;;8.20;99.90;;;;;;4979432;28;20266;-80
2021/12/18 06:55:13;;;;;;;25.97;14.57;;;8.20;99.90;;;;;;4978064;28;20243;-79
2021/12/18 06:57:39;;;;;;;22.00;14.97;;;8.20;99.90;;;;;;4991368;28;20575;-79
2021/12/18 07:00:08;;;;;;;22.52;15.02;;;8.10;99.90;;;;;;4993959;28;20570;-79
2021/12/18 07:02:35;;;;;;;22.98;16.63;;;8.20;99.90;;;;;;4996284;28;20183;-80
2021/12/18 07:05:01;;;;;;;24.25;13.85;;;8.10;99.90;;;;;;4996179;28;20207;-78
2021/12/18 07:07:27;;;;;;;24.77;13.27;;;8.00;99.90;;;;;;4995972;28;20597;-80
2021/12/18 07:09:52;;;;;;;28.57;17.53;;;8.10;99.90;;;;;;5007698;28;20623;-79
2021/12/18 07:12:18;;;;;;;25.73;15.13;;;8.10;99.90;;;;;;4993928;28;20570;-80
2021/12/18 07:14:44;;;;;;;21.00;13.80;;;8.10;99.90;;;;;;5008906;28;20302;-80
2021/12/18 07:17:10;;;;;;;22.80;14.93;;;8.10;99.90;;;;;;4995781;28;20202;-79
2021/12/18 07:19:36;;;;;;;23.77;13.90;;;8.10;99.90;;;;;;5007666;28;20175;-80
2021/12/18 07:22:02;;;;;;;20.13;11.90;;;8.10;99.90;;;;;;4994228;28;20175;-82
2021/12/18 07:24:29;;;;;;;17.52;11.95;;;8.20;99.90;;;;;;4991221;28;20204;-79
2021/12/18 07:26:55;;;;;;;20.52;12.45;;;8.20;99.90;;;;;;4992330;28;20175;-80
2021/12/18 07:29:20;;;;;;;23.48;12.05;;;8.10;99.90;;;;;;4996461;28;20403;-79
2021/12/18 07:31:46;;;;;;;23.00;12.63;;;8.10;99.90;;;;;;4984837;28;20172;-80
2021/12/18 07:34:12;;;;;;;15.07;11.00;;;8.00;99.90;;;;;;4979384;28;20208;-79
2021/12/18 07:36:38;;;;;;;18.40;12.60;;;7.90;99.90;;;;;;4982943;28;20988;-80
2021/12/18 07:39:04;;;;;;;23.30;12.90;;;7.80;99.90;;;;;;4998536;28;20168;-79
2021/12/18 07:41:30;;;;;;;19.00;12.32;;;7.80;99.90;;;;;;4996118;28;20571;-80
2021/12/18 07:43:55;;;;;;;18.10;13.00;;;7.80;99.90;;;;;;4997505;28;20182;-80
2021/12/18 07:46:21;;;;;;;23.00;13.97;;;7.80;99.90;;;;;;4992711;28;20191;-81
2021/12/18 07:48:47;;;;;;;19.40;11.90;;;7.80;99.90;;;;;;4960066;28;20195;-81
2021/12/18 07:51:13;;;;;;;24.90;14.00;;;7.80;99.90;;;;;;5000226;28;20632;-80
2021/12/18 07:53:39;;;;;;;17.08;11.63;;;7.70;99.90;;;;;;4999142;28;20175;-78
2021/12/18 07:56:05;;;;;;;24.47;14.77;;;7.70;99.90;;;;;;5002946;28;20210;-79
2021/12/18 07:58:31;;;;;;;20.07;14.40;;;7.70;99.90;;;;;;4996380;28;20574;-80
2021/12/18 08:00:57;;;;;;;16.30;12.10;;;7.70;99.90;;;;;;4996262;28;20568;-78
2021/12/18 08:03:23;;;;;;;21.10;13.80;;;7.70;99.90;;;;;;4998495;28;20210;-78
2021/12/18 08:05:49;;;;;;;22.70;15.63;;;7.70;99.90;;;;;;4999735;28;20645;-78
2021/12/18 08:08:14;;;;;;;21.23;13.90;;;7.70;99.90;;;;;;4997413;28;20186;-78
2021/12/18 08:10:40;;;;;;;21.03;13.70;;;7.70;99.90;;;;;;5015839;28;20163;-78
2021/12/18 08:13:06;;;;;;;20.90;12.47;;;7.70;99.90;;;;;;4999661;28;20201;-79
2021/12/18 08:15:32;;;;;;;25.90;14.43;;;7.60;99.90;;;;;;4995442;28;20298;-78
2021/12/18 08:17:58;;;;;;;21.10;12.40;;;7.60;99.90;;;;;;4996324;28;20627;-78
2021/12/18 08:20:26;;;;;;;24.98;14.77;;;7.60;99.90;;;;;;4976633;28;20596;-78
2021/12/18 08:22:52;;;;;;;16.25;11.07;;;7.60;99.90;;;;;;4963853;28;20191;-78
2021/12/18 08:25:17;;;;;;;20.30;13.37;;;7.50;99.90;;;;;;4976172;28;20757;-78
2021/12/18 08:27:43;;;;;;;18.57;11.20;;;7.50;99.90;;;;;;4992187;28;20583;-78
2021/12/18 08:30:09;;;;;;;19.23;10.77;;;7.50;99.90;;;;;;4967692;28;20168;-78
2021/12/18 08:32:35;;;;;;;22.23;14.60;;;7.60;99.90;;;;;;4968130;28;20179;-78
2021/12/18 08:35:01;;;;;;;18.50;12.63;;;7.60;99.90;;;;;;4979476;28;20223;-78
2021/12/18 08:37:27;;;;;;;18.20;11.93;;;7.60;99.90;;;;;;4965369;28;20172;-78
2021/12/18 08:39:52;;;;;;;18.57;10.77;;;7.60;99.90;;;;;;4974976;28;20671;-79
2021/12/18 08:42:18;;;;;;;14.23;10.37;;;7.60;99.90;;;;;;4971329;28;20172;-78
2021/12/18 08:44:44;;;;;;;14.48;10.40;;;7.60;99.90;;;;;;4960954;28;20242;-79
2021/12/18 08:47:10;;;;;;;13.43;9.90;;;7.70;99.90;;;;;;4968549;28;20175;-79
2021/12/18 08:49:38;;;;;;;13.82;8.85;;;7.70;99.90;;;;;;4972526;28;20251;-78
2021/12/18 08:52:03;;;;;;;14.23;10.18;;;7.80;99.90;;;;;;4973348;28;20160;-79
2021/12/18 08:54:29;;;;;;;15.00;9.83;;;7.80;99.90;;;;;;4974092;28;20266;-78
2021/12/18 08:56:55;;;;;;;13.18;8.98;;;7.90;99.90;;;;;;4988231;28;21019;-79
2021/12/18 08:59:21;;;;;;;13.87;9.73;;;7.90;99.90;;;;;;4958025;28;20247;-80
2021/12/18 09:01:55;;;;;;;12.85;8.52;;;7.90;99.90;;;;;;4960740;28;20583;-78
2021/12/18 09:04:21;;;;;;;12.67;9.50;;;8.00;99.90;;;;;;4954600;28;20540;-79
2021/12/18 09:06:47;;;;;;;15.60;10.17;;;8.00;99.90;;;;;;4954915;29;20172;-78
2021/12/18 09:09:12;;;;;;;14.07;9.40;;;8.00;99.90;;;;;;4957935;29;20191;-78
2021/12/18 09:11:38;;;;;;;15.07;10.93;;;8.10;99.90;;;;;;4960226;28;20176;-79
2021/12/18 09:14:04;;;;;;;14.50;9.87;;;8.10;99.90;;;;;;5020144;28;20199;-79
2021/12/18 09:16:32;;;;;;;15.15;9.80;;;8.20;99.90;;;;;;4988096;28;20208;-78
2021/12/18 09:18:58;;;;;;;19.20;12.35;;;8.30;99.90;;;;;;4979622;28;20168;-78
2021/12/18 09:21:23;;;;;;;16.38;12.00;;;8.40;99.90;;;;;;4973197;28;20234;-77
2021/12/18 09:23:49;;;;;;;15.43;10.77;;;8.40;99.90;;;;;;4951623;29;20180;-78
2021/12/18 09:26:15;;;;;;;17.30;11.52;;;8.50;99.90;;;;;;4969978;28;20180;-78
2021/12/18 09:28:41;;;;;;;18.03;12.60;;;8.60;99.90;;;;;;4972639;28;20179;-79
2021/12/18 09:31:07;;;;;;;16.80;11.57;;;8.60;99.90;;;;;;4987523;28;21245;-78
2021/12/18 09:33:32;;;;;;;18.70;12.23;;;8.60;99.90;;;;;;4970757;28;20176;-78
2021/12/18 09:35:58;;;;;;;15.30;11.60;;;8.60;99.90;;;;;;4972389;28;20286;-78
2021/12/18 09:38:24;;;;;;;18.40;12.50;;;8.60;99.90;;;;;;4987345;28;20176;-79
2021/12/18 09:40:49;;;;;;;18.07;12.67;;;8.50;99.90;;;;;;4970922;28;20172;-78
2021/12/18 09:43:15;;;;;;;16.60;12.60;;;8.40;99.90;;;;;;4972597;28;20176;-77
2021/12/18 09:45:43;;;;;;;14.73;11.57;;;8.40;99.90;;;;;;4972283;28;20202;-78
2021/12/18 09:48:09;;;;;;;17.75;11.35;;;8.30;99.90;;;;;;4972642;28;20541;-78
2021/12/18 09:50:37;;;;;;;16.67;11.43;;;8.30;99.90;;;;;;4971938;28;20178;-79
2021/12/18 09:53:04;;;;;;;18.15;12.85;;;8.30;99.90;;;;;;4972525;28;20235;-81
2021/12/18 09:55:30;;;;;;;16.55;11.77;;;8.30;99.90;;;;;;4973455;28;20215;-79
2021/12/18 09:57:56;;;;;;;17.17;12.00;;;8.30;99.90;;;;;;4972541;28;20564;-78
2021/12/18 10:00:24;;;;;;;17.00;12.27;;;8.30;99.90;;;;;;4970820;28;20271;-79
2021/12/18 10:02:50;;;;;;;13.68;10.77;;;8.30;99.90;;;;;;4972204;28;20168;-78
2021/12/18 10:05:36;;;;;;;19.83;13.55;;;8.30;99.90;;;;;;4972264;28;20195;-78
2021/12/18 10:08:19;;;;;;;17.98;12.00;;;8.30;99.90;;;;;;4971980;28;20164;-78
2021/12/18 10:11:20;;;;;;;14.73;11.52;;;8.40;99.90;;;;;;4972973;28;20211;-78
2021/12/18 10:13:54;;;;;;;16.60;10.93;;;8.40;99.90;;;;;;4935027;29;20172;-77
2021/12/18 10:16:21;;;;;;;18.98;11.98;;;8.40;99.90;;;;;;4969641;28;20219;-77
2021/12/18 10:18:47;;;;;;;16.63;11.70;;;8.40;99.90;;;;;;4991219;28;20195;-78
2021/12/18 10:21:17;;;;;;;20.17;11.03;;;8.50;99.90;;;;;;4975275;28;20203;-78
2021/12/18 10:23:44;;;;;;;15.07;10.20;;;8.60;99.90;;;;;;4975945;28;20571;-78
2021/12/18 10:26:34;;;;;;;16.55;11.32;;;8.70;99.90;;;;;;4974441;28;20203;-78
2021/12/18 10:29:00;;;;;;;15.93;10.80;;;8.80;99.90;;;;;;4991210;28;20264;-78
2021/12/18 10:31:45;;;;;;;14.32;10.68;;;8.90;99.90;;;;;;4977550;28;20178;-78
2021/12/18 10:34:21;;;;;;;15.57;11.25;;;9.00;99.90;;;;;;4991609;28;20621;-79
2021/12/18 10:37:21;;;;;;;15.80;9.18;;;9.10;99.90;;;;;;4975598;28;20578;-78
2021/12/18 10:39:50;;;;;;;15.82;11.52;;;9.20;99.90;;;;;;4975192;28;20307;-78
2021/12/18 10:42:19;;;;;;;15.63;10.82;;;9.20;99.90;;;;;;4975506;28;20167;-77
2021/12/18 10:45:10;;;;;;;15.38;10.40;;;9.30;99.90;;;;;;4975502;28;20195;-78
2021/12/18 10:47:56;;;;;;;19.15;10.90;;;9.40;99.90;;;;;;4975183;28;20175;-79
2021/12/18 10:50:31;;;;;;;16.00;11.98;;;9.50;99.90;;;;;;4975052;28;20168;-78
2021/12/18 10:53:07;;;;;;;18.75;11.57;;;9.50;99.90;;;;;;4975165;28;20179;-78
2021/12/18 10:55:54;;;;;;;14.82;10.50;;;9.50;99.90;;;;;;4989898;28;20754;-79
2021/12/18 10:58:28;;;;;;;15.60;11.63;;;9.60;99.90;;;;;;4975290;28;20175;-78
2021/12/18 11:00:57;;;;;;;16.27;10.95;;;9.60;99.90;;;;;;4957570;28;20168;-79
2021/12/18 11:03:34;;;;;;;17.63;11.85;;;9.60;99.90;;;;;;4974873;28;20221;-78
2021/12/18 11:06:19;;;;;;;18.60;11.35;;;9.60;99.90;;;;;;4974018;28;20558;-79
2021/12/18 11:09:00;;;;;;;15.93;10.52;;;9.60;99.90;;;;;;4943677;28;20190;-78
2021/12/18 11:14:02;;;;;;;12.13;9.70;;;9.80;99.90;;;;;;4974893;28;20258;-78
2021/12/18 11:16:29;;;;;;;15.00;10.30;;;9.80;99.90;;;;;;4990204;28;20210;-79
2021/12/18 11:18:55;;;;;;;14.85;10.15;;;9.90;99.90;;;;;;4974832;28;20215;-79
2021/12/18 11:21:25;;;;;;;15.85;11.20;;;9.90;99.90;;;;;;4974920;28;20198;-79
2021/12/18 11:24:05;;;;;;;14.88;10.02;;;9.90;99.90;;;;;;4975065;28;20270;-79
2021/12/18 11:26:41;;;;;;;15.55;11.32;;;9.90;99.90;;;;;;4990323;28;20179;-78
2021/12/18 11:29:20;;;;;;;13.13;9.35;;;10.00;99.90;;;;;;4975245;28;20207;-78
2021/12/18 11:31:46;;;;;;;11.85;9.40;;;10.10;99.90;;;;;;4973722;28;20242;-79
2021/12/18 11:34:12;;;;;;;12.75;10.07;;;10.10;99.90;;;;;;4973196;28;20207;-78
2021/12/18 11:36:41;;;;;;;17.42;10.50;;;10.20;99.90;;;;;;4975503;28;20200;-80
2021/12/18 11:39:09;;;;;;;13.25;10.15;;;10.20;99.90;;;;;;4976052;28;20234;-81
2021/12/18 11:41:37;;;;;;;12.20;8.70;;;10.20;99.90;;;;;;4974617;28;20167;-79
2021/12/18 11:44:27;;;;;;;15.07;10.35;;;10.30;99.90;;;;;;4974233;28;20771;-79
2021/12/18 11:46:53;;;;;;;13.27;10.35;;;10.30;99.90;;;;;;4991395;28;20524;-78
2021/12/18 11:49:21;;;;;;;12.05;8.18;;;10.30;99.90;;;;;;4974412;28;20323;-79
2021/12/18 11:51:58;;;;;;;13.25;9.52;;;10.30;99.90;;;;;;4974365;28;20186;-79
2021/12/18 11:54:50;;;;;;;14.15;9.10;;;10.30;99.90;;;;;;4973864;28;20206;-78
2021/12/18 11:57:37;;;;;;;12.27;8.32;;;10.20;99.90;;;;;;4974276;28;20199;-78
2021/12/18 12:00:34;;;;;;;10.52;6.90;;;10.20;99.90;;;;;;4973718;28;20234;-78
2021/12/18 12:03:02;;;;;;;10.88;6.80;;;10.30;99.90;;;;;;4974145;28;20202;-78
2021/12/18 12:05:48;;;;;;;11.25;6.63;;;10.30;99.90;;;;;;4973877;28;20251;-78
2021/12/18 12:08:42;;;;;;;9.32;6.55;;;10.30;99.90;;;;;;4989027;28;20201;-78
2021/12/18 12:11:23;;;;;;;8.75;5.88;;;10.30;99.90;;;;;;4972392;28;20186;-78
2021/12/18 12:13:58;;;;;;;11.80;6.90;;;10.40;99.90;;;;;;4972637;28;20538;-78
2021/12/18 12:16:42;;;;;;;8.00;5.70;;;10.40;99.90;;;;;;4971693;28;22090;-78
2021/12/18 12:19:10;;;;;;;10.85;5.65;;;10.40;99.90;;;;;;4972963;28;20211;-78
2021/12/18 12:21:41;;;;;;;7.80;5.93;;;10.40;99.90;;;;;;4988812;28;20172;-79
2021/12/18 12:24:08;;;;;;;8.98;5.80;;;10.50;99.90;;;;;;4975738;28;20199;-78
2021/12/18 12:26:35;;;;;;;11.50;6.93;;;10.50;99.90;;;;;;4972444;28;20180;-79
2021/12/18 12:29:01;;;;;;;8.43;6.55;;;10.50;99.90;;;;;;4972523;28;20536;-78
2021/12/18 12:31:27;;;;;;;9.05;6.10;;;10.50;99.90;;;;;;4972245;28;20223;-80
2021/12/18 12:37:21;;;;;;;7.25;5.63;;;10.50;99.90;;;;;;4992709;28;20218;-74
2021/12/18 12:40:01;;;;;;;9.77;6.30;;;10.60;99.90;;;;;;4999255;28;20266;-74
2021/12/18 12:42:27;;;;;;;7.55;5.65;;;10.60;99.90;;;;;;4992626;28;20167;-74
2021/12/18 12:45:08;;;;;;;8.00;5.65;;;10.70;99.90;;;;;;4991431;28;20251;-73
2021/12/18 12:47:34;;;;;;;9.48;6.18;;;10.70;99.90;;;;;;4994176;28;20174;-74
2021/12/18 12:50:20;;;;;;;10.00;6.55;;;10.70;99.90;;;;;;4999900;28;20174;-74
2021/12/18 12:52:55;;;;;;;8.20;6.25;;;10.70;99.90;;;;;;4992103;28;20219;-73
2021/12/18 12:55:23;;;;;;;11.60;7.65;;;10.70;99.90;;;;;;4992296;28;20551;-74
2021/12/18 12:57:55;;;;;;;10.57;7.90;;;10.70;99.90;;;;;;4990932;28;20639;-73
2021/12/18 13:00:24;;;;;;;12.02;7.10;;;10.80;99.90;;;;;;4990664;28;20682;-74
2021/12/18 13:02:52;;;;;;;11.38;8.65;;;10.80;99.90;;;;;;4991992;28;20178;-73
2021/12/18 13:05:21;;;;;;;12.60;8.32;;;10.80;99.90;;;;;;4992164;28;20306;-73
2021/12/18 13:07:51;;;;;;;10.95;9.02;;;10.70;99.90;;;;;;4992247;28;20531;-73
2021/12/18 13:10:22;;;;;;;12.70;8.55;;;10.70;99.90;;;;;;5007000;28;20567;-74
2021/12/18 13:13:02;;;;;;;8.60;6.95;;;10.70;99.90;;;;;;5007045;28;20205;-74
2021/12/18 13:15:55;;;;;;;13.10;8.40;;;10.70;99.90;;;;;;5006916;28;20210;-74
2021/12/18 13:18:43;;;;;;;13.88;9.55;;;10.70;99.90;;;;;;4991358;28;20752;-73
2021/12/18 13:21:18;;;;;;;10.43;8.00;;;10.60;99.90;;;;;;4989866;28;20589;-74
2021/12/18 13:23:46;;;;;;;10.75;8.35;;;10.70;99.90;;;;;;5006780;28;20171;-73
2021/12/18 13:26:18;;;;;;;11.95;8.57;;;10.70;99.90;;;;;;4992123;28;20306;-74
2021/12/18 13:28:57;;;;;;;11.00;8.60;;;10.70;99.90;;;;;;4991882;28;20244;-73
2021/12/18 13:31:26;;;;;;;9.73;7.53;;;10.70;99.90;;;;;;5006759;28;20174;-74